Time;durP1;ratioP1;P1;durP2;ratioP2;P2;SDS_P1;SDS_P2;PMS_P1;PMS_P2;Temp;Humidity;BMP_temperature;BMP_pressure;BME280_temperature;BME280_humidity;BME280_pressure;Samples;Min_cycle;Max_cycle;Signal;HPM_P1;HPM_P2
2023/09/29 00:00:24;;;;;;;1.70;1.00;;;;;;;12.25;100.00;96253.94;1027108;28;20063;-76
2023/09/29 00:00:54;;;;;;;0.70;0.70;;;;;;;12.26;100.00;96263.41;1030729;28;20038;-76
2023/09/29 00:01:26;;;;;;;1.05;0.80;;;;;;;12.28;100.00;96257.91;1031462;28;20460;-75
2023/09/29 00:01:56;;;;;;;1.25;0.95;;;;;;;12.27;100.00;96254.47;1031535;28;20628;-75
2023/09/29 00:02:26;;;;;;;0.70;0.63;;;;;;;12.28;100.00;96255.25;1031787;28;20025;-76
2023/09/29 00:02:57;;;;;;;1.00;1.00;;;;;;;12.30;100.00;96255.78;1027363;28;20499;-76
2023/09/29 00:03:27;;;;;;;0.65;0.65;;;;;;;12.27;100.00;96253.66;1027582;28;20462;-75
2023/09/29 00:03:59;;;;;;;0.73;0.60;;;;;;;12.29;100.00;96256.84;1023537;29;20093;-75
2023/09/29 00:04:29;;;;;;;0.75;0.75;;;;;;;12.28;100.00;96252.63;1026742;28;20011;-77
2023/09/29 00:05:01;;;;;;;0.77;0.70;;;;;;;12.20;100.00;96245.22;1027353;28;20519;-76
2023/09/29 00:05:31;;;;;;;0.80;0.80;;;;;;;12.25;100.00;96261.03;1024221;28;20516;-75
2023/09/29 00:06:03;;;;;;;0.60;0.60;;;;;;;12.22;100.00;96248.41;1031474;28;20019;-75
2023/09/29 00:06:33;;;;;;;0.60;0.60;;;;;;;12.28;100.00;96265.78;1023293;28;20389;-76
2023/09/29 00:07:07;;;;;;;0.77;0.77;;;;;;;12.26;100.00;96252.88;1019812;29;20024;-78
2023/09/29 00:07:37;;;;;;;0.75;0.70;;;;;;;12.26;100.00;96252.09;1019509;29;20082;-75
2023/09/29 00:08:08;;;;;;;0.63;0.63;;;;;;;12.25;100.00;96247.88;1021282;28;20082;-75
2023/09/29 00:08:38;;;;;;;0.60;0.60;;;;;;;12.20;100.00;96251.28;1027559;28;20098;-75
2023/09/29 00:09:12;;;;;;;0.80;0.80;;;;;;;12.22;100.00;96256.31;1027421;28;20160;-75
2023/09/29 00:09:43;;;;;;;1.15;0.80;;;;;;;12.24;100.00;96254.22;1015480;29;20060;-75
2023/09/29 00:10:16;;;;;;;0.55;0.50;;;;;;;12.22;100.00;96257.09;1019624;29;20433;-75
2023/09/29 00:10:47;;;;;;;0.80;0.80;;;;;;;12.18;100.00;96248.13;1023403;29;20027;-75
2023/09/29 00:11:17;;;;;;;0.90;0.63;;;;;;;12.24;100.00;96256.84;1024710;28;20059;-74
2023/09/29 00:11:48;;;;;;;0.60;0.60;;;;;;;12.23;100.00;96252.59;1027855;28;20022;-76
2023/09/29 00:12:18;;;;;;;0.80;0.77;;;;;;;12.24;100.00;96252.38;1027211;28;20031;-75
2023/09/29 00:12:49;;;;;;;0.50;0.50;;;;;;;12.21;100.00;96252.88;1023546;29;20024;-76
2023/09/29 00:13:19;;;;;;;0.60;0.60;;;;;;;12.22;100.00;96251.81;1015475;29;20047;-75
2023/09/29 00:13:50;;;;;;;0.90;0.75;;;;;;;12.22;100.00;96253.66;1019631;29;20023;-76
2023/09/29 00:14:20;;;;;;;0.70;0.70;;;;;;;12.22;100.00;96246.56;1019501;29;20040;-75
2023/09/29 00:14:52;;;;;;;0.95;0.70;;;;;;;12.21;100.00;96249.47;1022295;28;20516;-75
2023/09/29 00:15:22;;;;;;;0.63;0.63;;;;;;;12.21;100.00;96254.72;1019589;29;20079;-78
2023/09/29 00:15:53;;;;;;;0.70;0.70;;;;;;;12.20;100.00;96253.13;1019525;29;20027;-74
2023/09/29 00:16:23;;;;;;;0.60;0.60;;;;;;;12.19;100.00;96246.28;1019890;28;20024;-75
2023/09/29 00:16:53;;;;;;;0.68;0.68;;;;;;;12.21;100.00;96252.88;1026376;28;20070;-77
2023/09/29 00:17:24;;;;;;;0.55;0.55;;;;;;;12.22;100.00;96246.56;1023342;28;20038;-77
2023/09/29 00:17:54;;;;;;;0.60;0.60;;;;;;;12.19;100.00;96248.91;1031452;28;20030;-75
2023/09/29 00:18:25;;;;;;;0.68;0.68;;;;;;;12.18;100.00;96249.97;1023285;29;20568;-75
2023/09/29 00:18:56;;;;;;;0.80;0.80;;;;;;;12.15;100.00;96245.25;1019232;29;20397;-77
2023/09/29 00:19:26;;;;;;;0.60;0.60;;;;;;;12.21;100.00;96252.09;1019568;29;20027;-77
2023/09/29 00:19:57;;;;;;;0.70;0.70;;;;;;;12.19;100.00;96251.56;1019318;29;20027;-76
2023/09/29 00:20:29;;;;;;;0.60;0.60;;;;;;;12.22;100.00;96253.66;1023467;29;20110;-78
2023/09/29 00:21:00;;;;;;;0.70;0.70;;;;;;;12.15;100.00;96247.88;1023405;29;20078;-77
2023/09/29 00:21:30;;;;;;;0.60;0.60;;;;;;;12.18;100.00;96255.25;1023517;29;20023;-77
2023/09/29 00:22:00;;;;;;;0.70;0.70;;;;;;;12.15;100.00;96251.28;1023401;29;20027;-75
2023/09/29 00:22:31;;;;;;;0.70;0.70;;;;;;;12.17;100.00;96251.00;1023372;29;20019;-74
2023/09/29 00:23:02;;;;;;;1.58;0.90;;;;;;;12.15;100.00;96253.13;1023518;29;20567;-75
2023/09/29 00:23:33;;;;;;;0.98;0.52;;;;;;;12.12;100.00;96253.66;1025428;28;20054;-75
2023/09/29 00:24:04;;;;;;;0.77;0.60;;;;;;;12.08;100.00;96247.31;1023254;29;20036;-75
2023/09/29 00:24:34;;;;;;;0.47;0.47;;;;;;;12.03;100.00;96248.09;1019237;29;20023;-76
2023/09/29 00:25:08;;;;;;;0.52;0.52;;;;;;;12.09;100.00;96256.78;1020273;28;20027;-74
2023/09/29 00:25:38;;;;;;;0.85;0.77;;;;;;;12.05;100.00;96256.53;1031201;28;20033;-75
2023/09/29 00:26:09;;;;;;;0.60;0.60;;;;;;;11.98;100.00;96238.34;1027832;28;20043;-75
2023/09/29 00:26:40;;;;;;;0.65;0.65;;;;;;;12.02;100.00;96252.56;1027826;28;20031;-74
2023/09/29 00:27:11;;;;;;;0.70;0.70;;;;;;;12.00;100.00;96249.41;1027278;28;20026;-76
2023/09/29 00:27:41;;;;;;;1.73;0.70;;;;;;;11.98;100.00;96246.25;1023340;29;20113;-76
2023/09/29 00:28:12;;;;;;;0.70;0.70;;;;;;;11.90;100.00;96238.84;1019289;29;20036;-75
2023/09/29 00:28:42;;;;;;;0.70;0.63;;;;;;;11.96;100.00;96247.53;1023281;28;20023;-74
2023/09/29 00:29:13;;;;;;;0.60;0.60;;;;;;;11.95;100.00;96259.91;1023572;28;20027;-74
2023/09/29 00:29:43;;;;;;;0.55;0.55;;;;;;;11.96;100.00;96258.84;1027431;28;20113;-75
2023/09/29 00:30:14;;;;;;;0.75;0.65;;;;;;;11.91;100.00;96235.19;1031515;28;20574;-75
2023/09/29 00:30:45;;;;;;;0.50;0.50;;;;;;;11.93;100.00;96238.31;1027444;28;20083;-75
2023/09/29 00:31:15;;;;;;;0.55;0.55;;;;;;;11.99;100.00;96252.28;1023620;28;20038;-75
2023/09/29 00:31:46;;;;;;;0.55;0.55;;;;;;;11.98;100.00;96248.88;1023432;29;20039;-76
2023/09/29 00:32:17;;;;;;;0.50;0.50;;;;;;;11.98;100.00;96248.88;1023610;28;20444;-75
2023/09/29 00:32:49;;;;;;;1.02;0.57;;;;;;;11.97;100.00;96243.84;1023632;28;20023;-76
2023/09/29 00:33:20;;;;;;;1.02;0.60;;;;;;;11.97;100.00;96247.28;1023329;28;20027;-75
2023/09/29 00:33:50;;;;;;;0.45;0.45;;;;;;;11.96;100.00;96248.31;1023438;29;20294;-78
2023/09/29 00:34:21;;;;;;;1.02;0.60;;;;;;;11.95;100.00;96246.75;1023495;28;20019;-80
2023/09/29 00:34:52;;;;;;;0.57;0.57;;;;;;;11.96;100.00;96243.06;1019856;28;20151;-74
2023/09/29 00:35:29;;;;;;;2.38;0.50;;;;;;;11.95;100.00;96244.13;1019268;29;20067;-74
2023/09/29 00:36:02;;;;;;;1.25;0.60;;;;;;;11.90;100.00;96233.56;1019169;29;20378;-75
2023/09/29 00:36:32;;;;;;;0.80;0.80;;;;;;;11.94;100.00;96239.91;1019258;29;20027;-75
2023/09/29 00:37:04;;;;;;;0.73;0.73;;;;;;;11.94;100.00;96241.75;1019359;29;20035;-76
2023/09/29 00:37:35;;;;;;;0.63;0.63;;;;;;;11.93;100.00;96243.59;1019166;29;20458;-74
2023/09/29 00:38:05;;;;;;;0.40;0.40;;;;;;;11.90;100.00;96228.31;1023991;28;20023;-75
2023/09/29 00:38:36;;;;;;;0.60;0.60;;;;;;;11.91;100.00;96245.69;1019386;29;20020;-75
2023/09/29 00:39:10;;;;;;;0.63;0.50;;;;;;;11.92;100.00;96241.22;1018435;29;20028;-75
2023/09/29 00:39:40;;;;;;;6.80;6.25;;;;;;;11.87;100.00;96228.03;1014659;29;20568;-76
2023/09/29 00:40:14;;;;;;;5.57;4.10;;;;;;;11.86;100.00;96227.25;1021129;28;20028;-74
2023/09/29 00:40:45;;;;;;;7.28;5.30;;;;;;;11.91;100.00;96239.66;1015395;29;20032;-75
2023/09/29 00:41:16;;;;;;;11.10;6.00;;;;;;;11.92;100.00;96231.50;1015585;29;20103;-74
2023/09/29 00:41:49;;;;;;;6.72;4.95;;;;;;;11.92;100.00;96235.97;1019219;29;20100;-76
2023/09/29 00:42:19;;;;;;;19.08;5.57;;;;;;;11.89;100.00;96231.22;1021053;28;20032;-75
2023/09/29 00:42:50;;;;;;;11.38;5.25;;;;;;;11.89;100.00;96241.72;1020677;29;20027;-76
2023/09/29 00:43:21;;;;;;;7.93;4.78;;;;;;;11.91;100.00;96235.19;1023334;29;20384;-76
2023/09/29 00:43:51;;;;;;;9.07;5.15;;;;;;;11.95;100.00;96235.44;1015457;29;20035;-74
2023/09/29 00:44:22;;;;;;;7.30;4.72;;;;;;;11.87;100.00;96223.59;1016250;29;20385;-75
2023/09/29 00:44:53;;;;;;;5.88;4.65;;;;;;;12.00;100.00;96230.19;1027110;28;20039;-75
2023/09/29 00:45:28;;;;;;;11.85;5.13;;;;;;;12.00;100.00;96233.63;1027541;28;20023;-74
2023/09/29 00:45:59;;;;;;;9.00;5.43;;;;;;;11.96;100.00;96229.13;1023162;28;20024;-76
2023/09/29 00:46:29;;;;;;;8.68;4.88;;;;;;;11.91;100.00;96223.88;1024143;28;20030;-76
2023/09/29 00:47:01;;;;;;;7.18;5.05;;;;;;;11.94;100.00;96226.78;1020262;29;20020;-74
2023/09/29 00:47:32;;;;;;;7.28;4.45;;;;;;;11.95;100.00;96233.59;1023509;29;20030;-75
2023/09/29 00:48:09;;;;;;;7.57;5.10;;;;;;;11.93;100.00;96227.81;1023656;28;20035;-78
2023/09/29 00:48:39;;;;;;;7.45;4.60;;;;;;;11.96;100.00;96227.28;1031183;28;20533;-74
2023/09/29 00:49:11;;;;;;;6.10;4.88;;;;;;;11.90;100.00;96223.06;1027380;28;20027;-75
2023/09/29 00:49:42;;;;;;;8.00;5.43;;;;;;;11.89;100.00;96228.59;1023272;29;20015;-74
2023/09/29 00:50:14;;;;;;;8.05;5.15;;;;;;;11.90;100.00;96230.94;1023465;29;20029;-76
2023/09/29 00:50:45;;;;;;;10.20;5.38;;;;;;;11.89;100.00;96232.00;1023562;29;20042;-76
2023/09/29 00:51:15;;;;;;;7.00;4.90;;;;;;;11.91;100.00;96235.19;1023130;29;20103;-75
2023/09/29 00:51:46;;;;;;;6.47;4.70;;;;;;;11.83;100.00;96232.22;1019217;29;20020;-74
2023/09/29 00:52:17;;;;;;;9.02;5.57;;;;;;;11.87;100.00;96228.84;1019479;29;20385;-76
2023/09/29 00:52:47;;;;;;;7.95;5.30;;;;;;;11.86;100.00;96231.72;1019436;29;20024;-75
2023/09/29 00:53:18;;;;;;;7.22;4.82;;;;;;;11.85;100.00;96230.16;1019714;28;20020;-75
2023/09/29 00:53:48;;;;;;;7.28;4.93;;;;;;;11.82;100.00;96241.94;1015565;29;20433;-75
2023/09/29 00:54:19;;;;;;;9.45;5.25;;;;;;;11.76;100.00;96221.94;1015293;29;20028;-76
2023/09/29 00:54:51;;;;;;;6.68;4.70;;;;;;;11.82;100.00;96241.16;1018678;29;20034;-75
2023/09/29 00:55:23;;;;;;;7.88;5.30;;;;;;;11.77;100.00;96234.06;1023263;29;20023;-75
2023/09/29 00:55:54;;;;;;;7.65;4.95;;;;;;;11.78;100.00;96240.88;1019076;29;20020;-76
2023/09/29 00:56:24;;;;;;;10.18;5.28;;;;;;;11.77;100.00;96234.84;1023200;28;20035;-76
2023/09/29 00:56:55;;;;;;;6.20;4.82;;;;;;;11.75;100.00;96238.75;1019212;29;20023;-75
2023/09/29 00:57:26;;;;;;;11.40;5.28;;;;;;;11.72;100.00;96237.44;1027264;28;20027;-75
2023/09/29 00:57:58;;;;;;;10.02;5.60;;;;;;;11.68;100.00;96230.31;1027143;28;20514;-75
2023/09/29 00:58:28;;;;;;;9.27;4.93;;;;;;;11.70;100.00;96230.84;1023127;29;20035;-76
2023/09/29 00:58:59;;;;;;;8.50;5.53;;;;;;;11.73;100.00;96239.00;1023304;29;20020;-76
2023/09/29 00:59:31;;;;;;;8.15;4.63;;;;;;;11.75;100.00;96236.13;1019302;29;20032;-76
2023/09/29 01:00:04;;;;;;;6.13;4.60;;;;;;;11.66;100.00;96224.53;1023593;29;20083;-74
2023/09/29 01:00:40;;;;;;;9.32;5.25;;;;;;;11.68;100.00;96225.84;1019406;29;20027;-75
2023/09/29 01:01:13;;;;;;;9.40;5.25;;;;;;;11.67;100.00;96226.91;1023258;29;20019;-75
2023/09/29 01:01:43;;;;;;;6.95;5.22;;;;;;;11.69;100.00;96231.91;1023433;29;20035;-74
2023/09/29 01:02:14;;;;;;;6.65;4.78;;;;;;;11.66;100.00;96227.16;1023273;29;20034;-76
2023/09/29 01:02:44;;;;;;;8.23;4.70;;;;;;;11.67;100.00;96239.25;1023252;29;20094;-75
2023/09/29 01:03:15;;;;;;;9.05;5.28;;;;;;;11.65;100.00;96230.84;1023062;29;20453;-77
2023/09/29 01:03:45;;;;;;;10.40;5.50;;;;;;;11.66;100.00;96227.16;1023420;28;20023;-76
2023/09/29 01:04:16;;;;;;;6.07;4.75;;;;;;;11.63;100.00;96231.06;1027465;28;20026;-76
2023/09/29 01:04:46;;;;;;;9.02;5.40;;;;;;;11.63;100.00;96233.72;1033185;28;20030;-76
2023/09/29 01:05:17;;;;;;;9.55;5.13;;;;;;;11.67;100.00;96237.44;1019207;29;20035;-75
2023/09/29 01:05:48;;;;;;;6.95;4.20;;;;;;;11.63;100.00;96227.66;1015340;29;20039;-76
2023/09/29 01:06:19;;;;;;;6.28;4.93;;;;;;;11.65;100.00;96241.34;1019301;29;20030;-74
2023/09/29 01:06:50;;;;;;;6.70;4.65;;;;;;;11.63;100.00;96232.91;1023501;28;20019;-74
2023/09/29 01:07:20;;;;;;;7.63;5.18;;;;;;;11.59;100.00;96226.59;1023357;29;20019;-77
2023/09/29 01:07:51;;;;;;;10.00;5.85;;;;;;;11.59;100.00;96232.66;1023264;29;20027;-80
2023/09/29 01:08:22;;;;;;;9.63;5.50;;;;;;;11.62;100.00;96236.59;1023342;29;20392;-76
2023/09/29 01:08:53;;;;;;;6.57;4.57;;;;;;;11.63;100.00;96231.06;1023535;28;20026;-75
2023/09/29 01:09:23;;;;;;;7.47;5.10;;;;;;;11.62;100.00;96232.13;1027624;28;20022;-75
2023/09/29 01:09:54;;;;;;;10.50;5.03;;;;;;;11.57;100.00;96230.28;1031140;28;20065;-77
2023/09/29 01:10:25;;;;;;;7.45;5.22;;;;;;;11.62;100.00;96242.66;1027591;28;20026;-76
2023/09/29 01:10:56;;;;;;;6.78;4.72;;;;;;;11.61;100.00;96238.44;1027043;28;20061;-74
2023/09/29 01:11:27;;;;;;;8.75;4.72;;;;;;;11.54;100.00;96233.44;1019496;29;20532;-75
2023/09/29 01:11:59;;;;;;;10.32;5.70;;;;;;;11.60;100.00;96241.31;1030709;28;20033;-75
2023/09/29 01:12:31;;;;;;;7.03;4.60;;;;;;;11.56;100.00;96233.94;1027376;28;20065;-77
2023/09/29 01:13:02;;;;;;;8.25;4.82;;;;;;;11.56;100.00;96241.03;1023668;28;20022;-76
2023/09/29 01:13:32;;;;;;;9.60;4.45;;;;;;;11.52;100.00;96232.09;1031135;28;20458;-76
2023/09/29 01:14:04;;;;;;;7.97;4.75;;;;;;;11.56;100.00;96235.78;1035213;28;20022;-75
2023/09/29 01:14:34;;;;;;;11.07;5.55;;;;;;;11.56;100.00;96238.41;1026329;28;20033;-75
2023/09/29 01:15:05;;;;;;;8.15;5.03;;;;;;;11.59;100.00;96237.13;1022992;29;20267;-75
2023/09/29 01:15:36;;;;;;;7.40;4.82;;;;;;;11.57;100.00;96242.63;1023088;29;20034;-75
2023/09/29 01:16:07;;;;;;;6.18;4.38;;;;;;;11.53;100.00;96239.72;1026938;28;20044;-76
2023/09/29 01:16:40;;;;;;;7.82;4.93;;;;;;;11.50;100.00;96234.16;1027076;28;20026;-74
2023/09/29 01:17:11;;;;;;;6.88;5.00;;;;;;;11.53;100.00;96236.28;1027005;28;20283;-75
2023/09/29 01:17:44;;;;;;;8.52;5.38;;;;;;;11.53;100.00;96244.19;1027101;28;20031;-78
2023/09/29 01:18:19;;;;;;;6.30;4.93;;;;;;;11.53;100.00;96237.06;1018428;29;20027;-76
2023/09/29 01:18:50;;;;;;;6.38;4.75;;;;;;;11.52;100.00;96235.50;1019160;29;20307;-77
2023/09/29 01:19:20;;;;;;;6.32;4.82;;;;;;;11.52;100.00;96240.75;1027571;28;20048;-76
2023/09/29 01:19:51;;;;;;;6.53;4.90;;;;;;;11.50;100.00;96235.00;1027837;28;20023;-75
2023/09/29 01:20:28;;;;;;;6.82;4.63;;;;;;;11.49;100.00;96236.00;1026556;28;20023;-73
2023/09/29 01:21:00;;;;;;;8.63;4.85;;;;;;;11.46;100.00;96231.28;1024178;28;20412;-78
2023/09/29 01:21:31;;;;;;;8.95;5.85;;;;;;;11.47;100.00;96235.50;1023060;29;20345;-74
2023/09/29 01:22:01;;;;;;;10.90;5.47;;;;;;;11.48;100.00;96241.53;1024279;28;20302;-77
2023/09/29 01:22:33;;;;;;;9.23;4.60;;;;;;;11.44;100.00;96236.00;1023341;28;20103;-74
2023/09/29 01:23:03;;;;;;;6.75;4.85;;;;;;;11.40;100.00;96234.13;1023239;28;20023;-78
2023/09/29 01:23:34;;;;;;;8.32;5.20;;;;;;;11.44;100.00;96238.63;1025047;28;20027;-75
2023/09/29 01:24:07;;;;;;;7.10;4.68;;;;;;;11.43;100.00;96238.88;1018976;29;20094;-74
2023/09/29 01:24:37;;;;;;;8.15;5.32;;;;;;;11.42;100.00;96242.56;1018519;29;20547;-76
2023/09/29 01:25:10;;;;;;;6.00;4.70;;;;;;;11.42;100.00;96243.34;1015639;29;20060;-75
2023/09/29 01:25:41;;;;;;;12.77;5.30;;;;;;;11.39;100.00;96237.81;1020382;28;20066;-75
2023/09/29 01:26:11;;;;;;;8.38;4.80;;;;;;;11.28;100.00;96222.00;1023329;28;20285;-77
2023/09/29 01:26:44;;;;;;;7.43;4.70;;;;;;;11.37;100.00;96230.19;1027337;28;20023;-75
2023/09/29 01:27:15;;;;;;;6.55;4.75;;;;;;;11.44;100.00;96241.25;1026710;28;20042;-76
2023/09/29 01:27:45;;;;;;;8.63;5.03;;;;;;;11.42;100.00;96237.31;1023798;28;20027;-77
2023/09/29 01:28:16;;;;;;;6.90;5.00;;;;;;;11.38;100.00;96230.97;1023414;28;20038;-75
2023/09/29 01:28:50;;;;;;;7.07;4.50;;;;;;;11.38;100.00;96230.97;1019060;29;20588;-75
2023/09/29 01:29:20;;;;;;;9.05;4.70;;;;;;;11.41;100.00;96241.75;1019008;29;20028;-75
2023/09/29 01:29:52;;;;;;;7.97;4.60;;;;;;;11.39;100.00;96238.59;1018932;29;20548;-75
2023/09/29 01:30:24;;;;;;;6.70;4.55;;;;;;;11.37;100.00;96237.25;1021040;28;20031;-73
2023/09/29 01:30:55;;;;;;;7.45;4.72;;;;;;;11.30;100.00;96234.84;1019544;29;20267;-75
2023/09/29 01:31:25;;;;;;;7.53;4.63;;;;;;;11.40;100.00;96236.75;1023379;29;20271;-74
2023/09/29 01:31:55;;;;;;;6.95;4.60;;;;;;;11.38;100.00;96242.28;1019047;29;20027;-78
2023/09/29 01:32:26;;;;;;;10.45;5.03;;;;;;;11.37;100.00;96242.50;1020369;28;20031;-76
2023/09/29 01:32:57;;;;;;;7.35;5.10;;;;;;;11.31;100.00;96231.19;1027376;28;20415;-75
2023/09/29 01:33:27;;;;;;;5.70;4.40;;;;;;;11.36;100.00;96244.34;1031264;28;20018;-79
2023/09/29 01:33:58;;;;;;;8.98;4.68;;;;;;;11.37;100.00;96250.41;1035233;28;20026;-76
2023/09/29 01:34:31;;;;;;;6.70;4.55;;;;;;;11.36;100.00;96243.56;1030264;28;20018;-76
2023/09/29 01:35:03;;;;;;;8.90;5.30;;;;;;;11.37;100.00;96245.94;1027151;28;20039;-75
2023/09/29 01:35:33;;;;;;;9.48;4.43;;;;;;;11.38;100.00;96247.53;1023146;29;20711;-75
2023/09/29 01:36:04;;;;;;;7.88;4.68;;;;;;;11.40;100.00;96248.06;1023525;28;20299;-77
2023/09/29 01:36:35;;;;;;;6.75;4.85;;;;;;;11.40;100.00;96244.63;1018808;29;20090;-76
2023/09/29 01:37:05;;;;;;;8.70;5.00;;;;;;;11.41;100.00;96252.28;1019224;29;20110;-74
2023/09/29 01:37:38;;;;;;;6.70;4.47;;;;;;;11.39;100.00;96246.47;1019220;29;20039;-78
2023/09/29 01:38:08;;;;;;;8.43;4.50;;;;;;;11.37;100.00;96248.59;1024271;28;20031;-76
2023/09/29 01:38:39;;;;;;;8.60;4.28;;;;;;;11.36;100.00;96244.34;1031298;28;20309;-75
2023/09/29 01:39:11;;;;;;;8.68;5.32;;;;;;;11.33;100.00;96239.59;1022063;29;20027;-81
2023/09/29 01:39:41;;;;;;;7.35;4.93;;;;;;;11.35;100.00;96245.41;1018824;29;20023;-76
2023/09/29 01:40:13;;;;;;;6.65;4.32;;;;;;;11.37;100.00;96245.94;1022996;29;20263;-77
2023/09/29 01:40:45;;;;;;;6.15;4.53;;;;;;;11.37;100.00;96248.59;1019110;29;20020;-74
2023/09/29 01:41:15;;;;;;;8.55;4.85;;;;;;;11.37;100.00;96251.22;1019033;29;20268;-75
2023/09/29 01:41:47;;;;;;;7.95;4.85;;;;;;;11.37;100.00;96250.41;1015116;29;20747;-77
2023/09/29 01:42:19;;;;;;;7.03;4.80;;;;;;;11.36;100.00;96246.97;1016087;29;20035;-76
2023/09/29 01:42:50;;;;;;;7.00;4.90;;;;;;;11.28;100.00;96242.22;1020598;28;20016;-76
2023/09/29 01:43:23;;;;;;;6.18;4.80;;;;;;;11.27;100.00;96245.91;1023526;28;20543;-75
2023/09/29 01:43:53;;;;;;;8.02;4.50;;;;;;;11.21;100.00;96239.03;1019189;29;20031;-75
2023/09/29 01:44:24;;;;;;;7.00;4.60;;;;;;;11.19;100.00;96241.88;1018384;29;20625;-76
2023/09/29 01:44:54;;;;;;;9.15;4.38;;;;;;;11.23;100.00;96256.13;1019087;29;20023;-77
2023/09/29 01:45:25;;;;;;;6.22;4.38;;;;;;;11.20;100.00;96246.13;1023234;28;20030;-75
2023/09/29 01:45:56;;;;;;;7.13;4.90;;;;;;;11.27;100.00;96251.94;1022979;28;20398;-77
2023/09/29 01:46:26;;;;;;;7.63;4.75;;;;;;;11.29;100.00;96255.09;1027107;28;20035;-77
2023/09/29 01:46:56;;;;;;;8.30;4.75;;;;;;;11.28;100.00;96252.72;1026835;28;20380;-76
2023/09/29 01:47:27;;;;;;;6.35;4.57;;;;;;;11.27;100.00;96266.91;1023241;28;20015;-75
2023/09/29 01:48:00;;;;;;;5.30;4.20;;;;;;;11.28;100.00;96256.13;1023140;28;20046;-77
2023/09/29 01:48:31;;;;;;;6.53;4.75;;;;;;;11.27;100.00;96256.41;1019257;29;20255;-75
2023/09/29 01:49:01;;;;;;;6.43;4.45;;;;;;;11.20;100.00;96251.38;1019382;29;20263;-75
2023/09/29 01:49:32;;;;;;;6.15;4.50;;;;;;;11.27;100.00;96266.91;1019912;28;20026;-77
2023/09/29 01:50:02;;;;;;;7.38;4.68;;;;;;;11.25;100.00;96271.63;1023682;28;20070;-74
2023/09/29 01:50:33;;;;;;;7.03;4.57;;;;;;;11.24;100.00;96267.41;1027136;28;20094;-75
2023/09/29 01:51:03;;;;;;;6.05;4.28;;;;;;;11.16;100.00;96266.03;1022617;28;20752;-76
2023/09/29 01:51:34;;;;;;;9.88;5.30;;;;;;;11.18;100.00;96278.94;1022781;29;20131;-78
2023/09/29 01:52:04;;;;;;;6.40;4.40;;;;;;;11.14;100.00;96269.97;1019136;29;20171;-75
2023/09/29 01:52:35;;;;;;;6.85;4.75;;;;;;;11.13;100.00;96276.25;1015060;29;20102;-75
2023/09/29 01:53:07;;;;;;;8.23;5.35;;;;;;;11.08;100.00;96277.81;1018788;29;20079;-79
2023/09/29 01:53:37;;;;;;;7.75;5.03;;;;;;;11.05;100.00;96280.94;1019284;29;20020;-76
2023/09/29 01:54:07;;;;;;;7.00;5.05;;;;;;;10.98;100.00;96280.38;1023535;28;20019;-74
2023/09/29 01:54:38;;;;;;;9.15;5.53;;;;;;;10.92;100.00;96276.13;1034403;28;20038;-77
2023/09/29 01:55:10;;;;;;;7.60;5.40;;;;;;;10.84;100.00;96273.97;1034947;28;20022;-76
2023/09/29 01:55:40;;;;;;;8.50;5.03;;;;;;;10.78;100.00;96280.19;1026758;28;20262;-75
2023/09/29 01:56:11;;;;;;;9.02;5.63;;;;;;;10.74;100.00;96273.88;1019232;29;20746;-76
2023/09/29 01:56:41;;;;;;;9.48;5.47;;;;;;;10.64;100.00;96268.53;1023074;29;20023;-76
2023/09/29 01:57:12;;;;;;;8.30;5.28;;;;;;;10.62;100.00;96277.44;1023026;28;20432;-76
2023/09/29 01:57:43;;;;;;;8.57;5.53;;;;;;;10.56;100.00;96267.97;1023100;29;20430;-76
2023/09/29 01:58:14;;;;;;;7.00;5.68;;;;;;;10.54;100.00;96272.66;1019078;29;20303;-76
2023/09/29 01:58:44;;;;;;;7.47;5.45;;;;;;;10.49;100.00;96267.34;1023366;28;20034;-77
2023/09/29 01:59:15;;;;;;;7.95;6.00;;;;;;;10.47;100.00;96273.91;1019471;28;20461;-75
2023/09/29 01:59:45;;;;;;;7.40;5.43;;;;;;;10.44;100.00;96277.81;1026827;28;20023;-76
2023/09/29 02:00:19;;;;;;;10.18;5.80;;;;;;;10.42;100.00;96277.25;1023062;28;20035;-75
2023/09/29 02:00:49;;;;;;;7.43;5.32;;;;;;;10.38;100.00;96279.56;1019560;29;20567;-76
2023/09/29 02:01:20;;;;;;;7.35;5.55;;;;;;;10.36;100.00;96275.63;1019992;29;20306;-79
2023/09/29 02:01:50;;;;;;;7.75;5.57;;;;;;;10.31;100.00;96267.72;1022953;29;20548;-76
2023/09/29 02:02:21;;;;;;;7.63;5.38;;;;;;;10.31;100.00;96275.56;1026897;28;20026;-76
2023/09/29 02:02:53;;;;;;;9.65;6.00;;;;;;;10.25;100.00;96276.53;1019091;29;20023;-76
2023/09/29 02:03:24;;;;;;;10.65;5.70;;;;;;;10.27;100.00;96277.13;1019090;29;20029;-74
2023/09/29 02:03:55;;;;;;;10.48;5.97;;;;;;;10.18;100.00;96266.22;1022965;29;20270;-77
2023/09/29 02:04:25;;;;;;;9.85;5.60;;;;;;;10.24;100.00;96273.13;1022418;29;20505;-74
2023/09/29 02:04:56;;;;;;;11.63;5.70;;;;;;;10.23;100.00;96273.34;1022984;29;20350;-75
2023/09/29 02:05:29;;;;;;;9.98;5.72;;;;;;;10.17;100.00;96264.66;1019263;29;20031;-75
2023/09/29 02:06:02;;;;;;;7.35;5.90;;;;;;;10.20;100.00;96279.13;1022887;28;20279;-75
2023/09/29 02:06:33;;;;;;;9.43;5.93;;;;;;;10.18;100.00;96268.06;1022818;28;20698;-76
2023/09/29 02:07:03;;;;;;;8.80;6.28;;;;;;;10.18;100.00;96276.72;1020612;28;20279;-75
2023/09/29 02:07:36;;;;;;;10.43;7.10;;;;;;;10.17;100.00;96271.72;1027958;28;20039;-74
2023/09/29 02:08:06;;;;;;;9.80;5.90;;;;;;;10.14;100.00;96271.19;1019013;29;20075;-75
2023/09/29 02:08:36;;;;;;;9.93;5.75;;;;;;;10.18;100.00;96271.47;1019628;29;20673;-75
2023/09/29 02:09:10;;;;;;;8.90;5.47;;;;;;;10.15;100.00;96274.59;1023017;29;20524;-75
2023/09/29 02:09:42;;;;;;;10.23;5.90;;;;;;;10.12;100.00;96268.00;1023209;29;20050;-76
2023/09/29 02:10:12;;;;;;;8.85;5.78;;;;;;;10.10;100.00;96272.72;1024211;28;20357;-76
2023/09/29 02:10:43;;;;;;;9.52;6.07;;;;;;;10.05;100.00;96272.63;1030344;28;20303;-75
2023/09/29 02:11:13;;;;;;;9.65;5.85;;;;;;;10.07;100.00;96273.19;1023114;29;20103;-74
2023/09/29 02:11:45;;;;;;;10.20;5.93;;;;;;;10.10;100.00;96277.16;1022913;28;20069;-76
2023/09/29 02:12:17;;;;;;;7.45;5.85;;;;;;;10.07;100.00;96275.03;1022956;29;20031;-77
2023/09/29 02:12:55;;;;;;;8.00;6.10;;;;;;;10.02;100.00;96267.88;1019575;29;20285;-75
2023/09/29 02:13:25;;;;;;;14.15;6.70;;;;;;;10.06;100.00;96274.25;1018892;29;20278;-75
2023/09/29 02:13:56;;;;;;;8.10;6.05;;;;;;;10.08;100.00;96277.41;1019058;29;20278;-75
2023/09/29 02:14:29;;;;;;;10.30;6.97;;;;;;;10.03;100.00;96272.13;1018381;29;20027;-76
2023/09/29 02:14:59;;;;;;;8.38;6.15;;;;;;;10.03;100.00;96263.47;1022889;29;20081;-76
2023/09/29 02:15:31;;;;;;;7.75;5.82;;;;;;;10.00;100.00;96264.75;1023050;29;20437;-76
2023/09/29 02:16:02;;;;;;;11.63;6.00;;;;;;;10.06;100.00;96274.25;1019135;29;20086;-75
2023/09/29 02:16:34;;;;;;;11.07;6.03;;;;;;;10.06;100.00;96271.63;1015214;29;20355;-74
2023/09/29 02:17:06;;;;;;;9.45;6.63;;;;;;;10.05;100.00;96270.03;1019159;29;20354;-77
2023/09/29 02:17:36;;;;;;;10.02;6.78;;;;;;;10.09;100.00;96271.13;1015141;29;20403;-74
2023/09/29 02:18:09;;;;;;;8.98;6.22;;;;;;;10.07;100.00;96273.19;1013954;29;20820;-74
2023/09/29 02:18:39;;;;;;;8.68;5.90;;;;;;;10.08;100.00;96277.41;1018895;29;20059;-75
2023/09/29 02:19:10;;;;;;;10.23;6.40;;;;;;;10.11;100.00;96276.13;1019063;29;20268;-75
2023/09/29 02:19:40;;;;;;;7.47;5.90;;;;;;;10.14;100.00;96270.38;1022964;29;20023;-75
2023/09/29 02:20:13;;;;;;;9.20;6.32;;;;;;;10.17;100.00;96283.00;1022638;28;20812;-74
2023/09/29 02:20:47;;;;;;;8.80;5.88;;;;;;;10.19;100.00;96270.44;1020205;28;20016;-77
2023/09/29 02:21:23;;;;;;;10.77;6.45;;;;;;;10.22;100.00;96272.56;1026737;28;20313;-80
2023/09/29 02:21:55;;;;;;;9.23;6.20;;;;;;;10.22;100.00;96277.81;1024291;28;20772;-77
2023/09/29 02:22:26;;;;;;;9.77;6.13;;;;;;;10.28;100.00;96270.81;1018494;29;20343;-75
2023/09/29 02:22:58;;;;;;;8.98;6.18;;;;;;;10.31;100.00;96276.38;1022156;28;20259;-75
2023/09/29 02:23:28;;;;;;;7.05;5.45;;;;;;;10.26;100.00;96272.88;1023422;28;20748;-75
2023/09/29 02:23:59;;;;;;;8.27;6.05;;;;;;;10.31;100.00;96281.59;1023055;28;20027;-76
2023/09/29 02:24:30;;;;;;;11.38;6.18;;;;;;;10.41;100.00;96280.91;1026369;28;20057;-75
2023/09/29 02:25:00;;;;;;;8.10;5.60;;;;;;;10.40;100.00;96278.56;1023341;28;20147;-75